Time;durP1;ratioP1;P1;durP2;ratioP2;P2;SDS_P1;SDS_P2;PMS_P1;PMS_P2;Temp;Humidity;BMP_temperature;BMP_pressure;BME280_temperature;BME280_humidity;BME280_pressure;Samples;Min_cycle;Max_cycle;Signal;HPM_P1;HPM_P2
2022/05/30 00:01:19;;;;;;;7.10;2.50;;;;;;;10.41;100.00;101281.84;5223828;28;20022;-69
2022/05/30 00:03:51;;;;;;;6.10;1.52;;;;;;;10.35;100.00;101282.34;5227051;28;20384;-69
2022/05/30 00:06:23;;;;;;;7.40;1.73;;;;;;;10.26;100.00;101280.41;5216325;28;20037;-69
2022/05/30 00:08:54;;;;;;;5.75;1.88;;;;;;;10.19;100.00;101274.78;5224816;28;20030;-69
2022/05/30 00:11:27;;;;;;;6.57;1.60;;;;;;;10.24;100.00;101274.44;5224708;28;20065;-69
2022/05/30 00:13:59;;;;;;;;;;;;;;;10.75;100.00;101275.78;5223787;28;20025;-69
2022/05/30 00:16:30;;;;;;;8.35;1.70;;;;;;;10.17;100.00;101278.47;5223757;28;20364;-69
2022/05/30 00:19:01;;;;;;;6.15;1.73;;;;;;;10.07;100.00;101278.31;5223391;28;20041;-69
2022/05/30 00:21:32;;;;;;;4.53;1.58;;;;;;;10.09;100.00;101276.44;5209354;28;20100;-69
2022/05/30 00:24:04;;;;;;;4.85;1.65;;;;;;;10.05;100.00;101276.78;5225541;28;20061;-69
2022/05/30 00:26:36;;;;;;;6.82;1.88;;;;;;;10.14;100.00;101273.47;5219539;28;20186;-69
2022/05/30 00:29:08;;;;;;;5.93;1.60;;;;;;;10.05;100.00;101279.41;5225807;28;20037;-69
2022/05/30 00:31:39;;;;;;;6.45;1.65;;;;;;;10.05;100.00;101277.63;5223439;28;20083;-69
2022/05/30 00:34:11;;;;;;;6.82;1.70;;;;;;;10.02;100.00;101274.41;5225218;28;20030;-69
2022/05/30 00:36:42;;;;;;;10.60;2.10;;;;;;;10.02;100.00;101274.41;5221896;28;20029;-69
2022/05/30 00:39:13;;;;;;;6.93;1.88;;;;;;;10.02;100.00;101274.41;5223630;28;20147;-69
2022/05/30 00:41:45;;;;;;;8.00;1.60;;;;;;;10.02;100.00;101264.75;5220848;28;20057;-69
2022/05/30 00:44:16;;;;;;;5.68;1.60;;;;;;;10.06;100.00;101267.97;5223745;28;20035;-69
2022/05/30 00:46:47;;;;;;;5.72;1.65;;;;;;;10.09;100.00;101265.97;5224874;28;20030;-69
2022/05/30 00:49:19;;;;;;;5.72;1.80;;;;;;;10.09;100.00;101265.13;5227818;28;20030;-69
2022/05/30 00:51:55;;;;;;;5.45;1.70;;;;;;;10.14;100.00;101257.75;5221975;28;20036;-69
2022/05/30 00:54:34;;;;;;;7.85;1.80;;;;;;;10.21;100.00;101258.94;5224841;28;20045;-69
2022/05/30 00:57:20;;;;;;;6.10;1.90;;;;;;;10.11;100.00;101265.84;5224746;28;20026;-69
2022/05/30 00:59:53;;;;;;;17.60;2.55;;;;;;;10.12;100.00;101260.50;5225329;28;20507;-69
2022/05/30 01:02:28;;;;;;;6.80;1.98;;;;;;;10.15;100.00;101262.03;5221801;28;20558;-69
2022/05/30 01:07:49;;;;;;;7.05;1.83;;;;;;;10.03;100.00;101260.34;5256103;23;20110;-70
2022/05/30 01:10:23;;;;;;;7.63;2.10;;;;;;;10.05;100.00;101253.22;5249444;28;20025;-69
2022/05/30 01:12:56;;;;;;;7.18;1.60;;;;;;;9.99;100.00;101247.50;5236552;28;20387;-69
2022/05/30 01:15:30;;;;;;;6.95;1.83;;;;;;;10.07;100.00;101248.69;5255158;28;20033;-69
2022/05/30 01:18:12;;;;;;;8.38;2.58;;;;;;;10.12;100.00;101250.03;5232953;28;20020;-69
2022/05/30 01:20:52;;;;;;;6.97;1.90;;;;;;;10.10;100.00;101251.91;5234216;28;20077;-70
2022/05/30 01:23:38;;;;;;;10.13;2.40;;;;;;;10.11;100.00;101250.94;5225150;28;20029;-70
2022/05/30 01:26:46;;;;;;;5.20;1.70;;;;;;;10.20;100.00;101262.53;5238724;28;20033;-70
2022/05/30 01:29:32;;;;;;;7.05;2.22;;;;;;;9.99;100.00;101250.09;5223115;28;20164;-69
2022/05/30 01:32:04;;;;;;;5.38;1.70;;;;;;;9.90;100.00;101245.59;5238331;28;20036;-69
2022/05/30 01:34:35;;;;;;;6.85;2.00;;;;;;;9.88;100.00;101237.00;5239461;28;20037;-69
2022/05/30 01:37:07;;;;;;;8.35;2.40;;;;;;;9.85;100.00;101247.72;5243828;28;20534;-67
2022/05/30 01:39:38;;;;;;;6.50;2.47;;;;;;;9.85;100.00;101244.25;5238444;28;20032;-69
2022/05/30 01:42:09;;;;;;;7.35;2.47;;;;;;;9.87;100.00;101248.41;5245846;28;20100;-69
2022/05/30 01:44:41;;;;;;;5.15;1.80;;;;;;;9.81;100.00;101234.97;5242120;28;20021;-68
2022/05/30 01:47:12;;;;;;;3.65;1.42;;;;;;;9.82;100.00;101239.25;5243569;28;20021;-69
2022/05/30 01:49:43;;;;;;;6.78;2.15;;;;;;;9.78;100.00;101240.44;5237322;28;20029;-69
2022/05/30 01:52:15;;;;;;;10.55;1.98;;;;;;;9.79;100.00;101242.94;5238914;28;20057;-69
2022/05/30 01:54:46;;;;;;;6.15;2.20;;;;;;;9.73;100.00;101238.97;5241322;28;20035;-70
2022/05/30 01:57:17;;;;;;;5.07;2.05;;;;;;;9.83;100.00;101233.06;5238670;28;20036;-69
2022/05/30 01:59:48;;;;;;;4.60;1.90;;;;;;;9.80;100.00;101231.50;5242160;28;20475;-68
2022/05/30 02:02:20;;;;;;;7.68;2.72;;;;;;;9.77;100.00;101223.06;5241049;28;20029;-70
2022/05/30 02:04:52;;;;;;;6.35;1.98;;;;;;;9.82;100.00;101234.03;5227674;28;20543;-69
2022/05/30 02:07:24;;;;;;;5.07;2.17;;;;;;;9.85;100.00;101234.63;5247396;28;20086;-69
2022/05/30 02:09:55;;;;;;;11.95;2.20;;;;;;;9.75;100.00;101234.47;5260091;28;20039;-70
2022/05/30 02:12:26;;;;;;;9.40;2.80;;;;;;;9.78;100.00;101230.81;5266853;28;20885;-69
2022/05/30 02:14:58;;;;;;;7.18;2.20;;;;;;;9.69;100.00;101228.88;5250361;28;20020;-69
2022/05/30 02:17:34;;;;;;;9.23;2.85;;;;;;;9.79;100.00;101224.63;5259516;28;20119;-70
2022/05/30 02:20:06;;;;;;;7.18;2.75;;;;;;;9.60;100.00;101222.56;5263996;28;20097;-70
2022/05/30 02:22:38;;;;;;;6.35;2.60;;;;;;;9.65;100.00;101225.66;5259122;28;20483;-69
2022/05/30 02:25:12;;;;;;;8.00;2.58;;;;;;;9.69;100.00;101226.25;5264722;28;20031;-69
2022/05/30 02:27:43;;;;;;;7.82;2.97;;;;;;;9.65;100.00;101222.19;5241677;28;20060;-69
2022/05/30 02:30:14;;;;;;;9.98;2.80;;;;;;;9.75;100.00;101220.56;5259956;28;20151;-70
2022/05/30 02:32:46;;;;;;;7.40;2.80;;;;;;;9.67;100.00;101223.75;5265833;28;20040;-69
2022/05/30 02:38:07;;;;;;;7.80;3.17;;;;;;;9.77;100.00;101228.28;5258842;28;20028;-69
2022/05/30 02:40:38;;;;;;;9.40;3.30;;;;;;;9.64;100.00;101223.16;5259875;28;20020;-69
2022/05/30 02:43:10;;;;;;;9.10;3.38;;;;;;;9.61;100.00;101213.75;5261829;28;20020;-69
2022/05/30 02:45:41;;;;;;;8.85;3.70;;;;;;;9.57;100.00;101214.09;5263695;28;20082;-70
2022/05/30 02:48:13;;;;;;;9.68;3.90;;;;;;;9.52;100.00;101214.44;5266944;28;20188;-69
2022/05/30 02:50:45;;;;;;;7.40;3.63;;;;;;;9.49;100.00;101205.03;5262625;28;20029;-69
2022/05/30 02:53:16;;;;;;;7.80;3.70;;;;;;;9.54;100.00;101216.94;5244716;28;20079;-69
2022/05/30 02:55:47;;;;;;;9.10;4.25;;;;;;;9.49;100.00;101222.50;5260899;28;20064;-69
2022/05/30 02:58:19;;;;;;;7.32;3.85;;;;;;;9.49;100.00;101212.88;5256274;28;20048;-69
2022/05/30 03:00:50;;;;;;;7.72;4.00;;;;;;;9.41;100.00;101217.84;5261799;28;20013;-69
2022/05/30 03:03:21;;;;;;;9.60;4.00;;;;;;;9.42;100.00;101222.13;5260880;28;20062;-70
2022/05/30 03:05:54;;;;;;;8.25;3.83;;;;;;;9.39;100.00;101224.13;5258918;28;20047;-70
2022/05/30 03:08:25;;;;;;;8.48;3.75;;;;;;;9.37;100.00;101215.59;5258498;28;20045;-70
2022/05/30 03:10:57;;;;;;;8.73;4.20;;;;;;;9.29;100.00;101218.75;5261304;28;20399;-68
2022/05/30 03:13:29;;;;;;;7.80;3.47;;;;;;;9.26;100.00;101218.97;5254911;28;20033;-70
2022/05/30 03:16:01;;;;;;;10.50;4.10;;;;;;;9.24;100.00;101231.31;5263625;28;20017;-69
2022/05/30 03:18:32;;;;;;;8.43;4.07;;;;;;;9.30;100.00;101225.66;5260738;28;20111;-69
2022/05/30 03:21:05;;;;;;;11.02;4.57;;;;;;;9.28;100.00;101224.94;5262351;28;20028;-69
2022/05/30 03:23:36;;;;;;;10.30;4.78;;;;;;;9.26;100.00;101218.97;5258521;28;20032;-69
2022/05/30 03:26:09;;;;;;;8.48;4.15;;;;;;;9.23;100.00;101229.66;5260714;28;20035;-68
2022/05/30 03:28:40;;;;;;;10.25;4.03;;;;;;;9.29;100.00;101234.44;5262171;28;20482;-69
2022/05/30 03:31:12;;;;;;;10.18;4.72;;;;;;;9.27;100.00;101237.16;5255936;28;20029;-69
2022/05/30 03:33:43;;;;;;;6.43;4.00;;;;;;;9.34;100.00;101229.72;5258718;28;20572;-69
2022/05/30 03:36:22;;;;;;;12.23;5.25;;;;;;;9.31;100.00;101231.72;5261825;28;20059;-69
2022/05/30 03:38:54;;;;;;;8.48;3.90;;;;;;;9.14;100.00;101236.41;5263546;28;20024;-70
2022/05/30 03:41:25;;;;;;;9.27;4.35;;;;;;;9.18;100.00;101242.22;5255301;28;20070;-69
2022/05/30 03:44:00;;;;;;;11.05;4.78;;;;;;;9.15;100.00;101242.44;5242183;28;20120;-69
2022/05/30 03:46:31;;;;;;;7.53;4.65;;;;;;;9.16;100.00;101244.13;5238102;28;20025;-69
2022/05/30 03:49:03;;;;;;;11.25;3.95;;;;;;;9.18;100.00;101248.28;5256487;28;20036;-69
2022/05/30 03:51:35;;;;;;;7.13;3.95;;;;;;;9.14;100.00;101246.84;5261000;28;20100;-69
2022/05/30 03:54:06;;;;;;;10.27;4.80;;;;;;;9.16;100.00;101249.34;5264775;28;20119;-70
2022/05/30 03:56:37;;;;;;;8.55;4.53;;;;;;;9.20;100.00;101246.38;5264851;28;20043;-70
2022/05/30 03:59:09;;;;;;;8.98;4.25;;;;;;;9.17;100.00;101251.03;5268948;28;20027;-70
2022/05/30 04:01:40;;;;;;;11.18;4.95;;;;;;;9.19;100.00;101249.13;5266262;28;20488;-72
2022/05/30 04:04:15;;;;;;;7.85;4.07;;;;;;;9.21;100.00;101247.25;5266924;28;20494;-70
2022/05/30 04:06:46;;;;;;;9.13;5.00;;;;;;;9.23;100.00;101248.78;5260951;28;20090;-69
2022/05/30 04:09:17;;;;;;;9.43;4.82;;;;;;;9.25;100.00;101240.84;5263191;28;20020;-70
2022/05/30 04:11:49;;;;;;;10.07;4.75;;;;;;;9.29;100.00;101234.44;5263880;28;20032;-69
2022/05/30 04:14:20;;;;;;;13.23;4.75;;;;;;;9.29;100.00;101231.84;5261928;28;20055;-70
2022/05/30 04:16:51;;;;;;;9.90;5.15;;;;;;;9.31;100.00;101237.78;5261604;28;20063;-70
2022/05/30 04:19:23;;;;;;;10.38;4.80;;;;;;;9.31;100.00;101235.16;5267029;28;20032;-69
2022/05/30 04:21:54;;;;;;;12.50;6.32;;;;;;;9.30;100.00;101240.50;5258439;28;20400;-70
2022/05/30 04:24:25;;;;;;;8.98;5.22;;;;;;;9.32;100.00;101226.38;5248892;28;20664;-69
2022/05/30 04:26:56;;;;;;;10.60;5.40;;;;;;;9.24;100.00;101232.19;5262792;28;20024;-70
2022/05/30 04:29:32;;;;;;;11.45;5.03;;;;;;;9.30;100.00;101233.50;5259362;28;20044;-70
2022/05/30 04:32:05;;;;;;;9.63;5.13;;;;;;;9.28;100.00;101235.41;5247825;28;20032;-68
2022/05/30 04:34:36;;;;;;;15.23;5.57;;;;;;;9.31;100.00;101236.94;5264857;28;20031;-69
2022/05/30 04:37:08;;;;;;;9.60;4.90;;;;;;;9.26;100.00;101250.34;5242950;28;20025;-70
2022/05/30 04:39:39;;;;;;;12.70;5.45;;;;;;;9.19;100.00;101244.72;5263607;28;20029;-70
2022/05/30 04:42:11;;;;;;;10.88;5.40;;;;;;;9.19;100.00;101246.50;5262789;28;20021;-69
2022/05/30 04:44:42;;;;;;;10.73;5.55;;;;;;;9.17;100.00;101251.88;5260301;28;20032;-69
2022/05/30 04:47:13;;;;;;;12.43;5.47;;;;;;;9.11;100.00;101246.22;5262473;28;20029;-69
2022/05/30 04:49:47;;;;;;;10.68;5.65;;;;;;;9.08;100.00;101255.13;5265922;28;20024;-68
2022/05/30 04:52:18;;;;;;;12.45;5.88;;;;;;;9.11;100.00;101247.06;5268352;28;20497;-70
2022/05/30 04:54:49;;;;;;;13.00;5.70;;;;;;;9.15;100.00;101255.53;5264179;28;20036;-68
2022/05/30 04:57:20;;;;;;;11.75;6.22;;;;;;;9.23;100.00;101253.19;5262383;28;20126;-70
2022/05/30 04:59:52;;;;;;;14.02;6.60;;;;;;;9.23;100.00;101259.25;5255340;28;20036;-70
2022/05/30 05:02:23;;;;;;;11.40;6.13;;;;;;;9.33;100.00;101255.97;5260920;28;20032;-69
2022/05/30 05:04:54;;;;;;;13.50;6.63;;;;;;;9.45;100.00;101253.28;5264864;28;20045;-70
2022/05/30 05:07:26;;;;;;;12.25;6.00;;;;;;;9.51;100.00;101246.78;5262321;28;20044;-70
2022/05/30 05:10:02;;;;;;;12.63;6.28;;;;;;;9.62;100.00;101256.44;5262254;28;20418;-68
2022/05/30 05:12:33;;;;;;;10.82;6.22;;;;;;;9.61;100.00;101258.22;5262898;28;20032;-69
2022/05/30 05:15:05;;;;;;;10.05;6.10;;;;;;;9.58;100.00;101255.00;5264898;28;20399;-69
2022/05/30 05:17:36;;;;;;;12.23;5.43;;;;;;;9.73;100.00;101252.06;5259334;28;20025;-68
2022/05/30 05:20:08;;;;;;;11.05;5.90;;;;;;;9.86;100.00;101259.03;5262362;28;20012;-68
2022/05/30 05:22:40;;;;;;;12.68;6.13;;;;;;;9.91;100.00;101262.09;5261915;28;20502;-70
2022/05/30 05:25:11;;;;;;;10.40;5.70;;;;;;;9.98;100.00;101264.16;5261607;28;20124;-71
2022/05/30 05:27:42;;;;;;;9.70;5.47;;;;;;;10.10;100.00;101265.00;5241004;28;20106;-69
2022/05/30 05:30:14;;;;;;;11.35;5.90;;;;;;;10.15;100.00;101262.03;5261724;28;20373;-68
2022/05/30 05:32:45;;;;;;;11.13;5.90;;;;;;;10.20;100.00;101267.75;5247067;28;20048;-69
2022/05/30 05:35:17;;;;;;;13.88;6.50;;;;;;;10.21;100.00;101266.81;5256719;28;20029;-69
2022/05/30 05:37:48;;;;;;;14.52;6.35;;;;;;;10.23;100.00;101263.13;5259471;28;20365;-69
2022/05/30 05:40:20;;;;;;;16.80;5.70;;;;;;;10.30;100.00;101267.91;5264266;28;20507;-69
2022/05/30 05:42:51;;;;;;;11.10;5.15;;;;;;;10.38;100.00;101276.88;5259448;28;20040;-69
2022/05/30 05:45:22;;;;;;;12.18;5.00;;;;;;;10.44;100.00;101275.53;5260434;28;20033;-69
2022/05/30 05:47:54;;;;;;;10.02;4.88;;;;;;;10.50;100.00;101269.84;5261131;28;20064;-69
2022/05/30 05:50:25;;;;;;;9.85;4.72;;;;;;;10.58;100.00;101277.94;5267978;28;20079;-69
2022/05/30 05:52:56;;;;;;;10.55;4.68;;;;;;;10.68;100.00;101268.41;5260408;28;20019;-69
2022/05/30 05:55:27;;;;;;;8.82;4.53;;;;;;;10.67;100.00;101277.19;5260350;28;20036;-69
2022/05/30 05:57:59;;;;;;;8.30;3.53;;;;;;;10.80;100.00;101271.84;5260688;28;20025;-69
2022/05/30 06:00:33;;;;;;;7.10;3.38;;;;;;;10.85;100.00;101274.94;5262681;28;20035;-69
2022/05/30 06:03:05;;;;;;;9.57;3.80;;;;;;;10.97;100.00;101283.59;5263607;28;20056;-69
2022/05/30 06:05:39;;;;;;;9.95;4.32;;;;;;;11.11;100.00;101283.34;5262449;28;20122;-69
2022/05/30 06:08:11;;;;;;;9.45;4.05;;;;;;;11.22;100.00;101279.03;5261378;28;20041;-69
2022/05/30 06:13:41;;;;;;;9.55;3.85;;;;;;;11.31;100.00;101275.66;5257686;28;20080;-69
2022/05/30 06:16:23;;;;;;;7.88;3.33;;;;;;;11.41;100.00;101285.28;5259251;28;20058;-69
2022/05/30 06:18:58;;;;;;;10.32;3.10;;;;;;;11.45;100.00;101285.88;5256674;28;20104;-69
2022/05/30 06:21:32;;;;;;;9.65;3.20;;;;;;;11.47;100.00;101283.13;5257226;28;20472;-69
2022/05/30 06:24:05;;;;;;;8.55;2.63;;;;;;;11.58;100.00;101278.66;5255143;28;20032;-70
2022/05/30 06:26:36;;;;;;;5.20;2.40;;;;;;;11.71;100.00;101278.50;5259804;28;20039;-69
2022/05/30 06:29:08;;;;;;;5.43;2.30;;;;;;;11.78;100.00;101279.66;5260716;28;20020;-69
2022/05/30 06:31:40;;;;;;;7.80;2.38;;;;;;;11.83;100.00;101277.50;5261892;28;20128;-69
2022/05/30 06:34:12;;;;;;;7.75;2.80;;;;;;;11.99;100.00;101281.47;5242373;28;20477;-69
2022/05/30 06:36:44;;;;;;;7.90;2.08;;;;;;;12.04;100.00;101287.97;5261209;28;20069;-69
2022/05/30 06:39:18;;;;;;;5.93;1.95;;;;;;;12.23;100.00;101281.19;5249546;28;20076;-70
2022/05/30 06:41:49;;;;;;;8.38;1.83;;;;;;;12.28;100.00;101286.91;5257357;28;20435;-70
2022/05/30 06:44:21;;;;;;;6.03;1.70;;;;;;;12.45;100.00;101285.44;5259362;28;20025;-69
2022/05/30 06:46:52;;;;;;;7.57;1.98;;;;;;;12.57;100.00;101287.84;5260607;28;20024;-70
2022/05/30 06:49:23;;;;;;;7.05;2.08;;;;;;;12.68;100.00;101288.72;5262515;28;20029;-69
2022/05/30 06:51:55;;;;;;;7.35;2.47;;;;;;;12.70;100.00;101289.44;5251270;28;20025;-69
2022/05/30 06:54:26;;;;;;;6.00;2.13;;;;;;;12.96;100.00;101292.44;5256533;28;20038;-72
2022/05/30 06:59:47;;;;;;;6.70;1.90;;;;;;;13.24;100.00;101296.94;5254557;28;20024;-69
2022/05/30 07:02:19;;;;;;;8.48;2.63;;;;;;;13.25;100.00;101292.50;5254013;28;20029;-70
2022/05/30 07:04:50;;;;;;;6.00;1.80;;;;;;;13.44;100.00;101284.63;5252941;28;20091;-70
2022/05/30 07:07:21;;;;;;;5.03;1.95;;;;;;;13.46;100.00;101287.13;5240995;28;20053;-70
2022/05/30 07:09:52;;;;;;;3.38;1.20;;;;;;;13.73;100.00;101281.16;5262317;28;20032;-70
2022/05/30 07:12:24;;;;;;;3.97;1.40;;;;;;;13.99;100.00;101287.50;5259129;28;20028;-71
2022/05/30 07:14:55;;;;;;;5.60;1.25;;;;;;;14.32;100.00;101294.09;5260667;28;20031;-70
2022/05/30 07:17:26;;;;;;;5.97;1.17;;;;;;;14.47;100.00;101290.97;5256246;28;20025;-71
2022/05/30 07:19:58;;;;;;;6.57;1.50;;;;;;;14.40;90.58;101280.19;5260588;28;20024;-70
2022/05/30 07:22:29;;;;;;;6.50;1.50;;;;;;;14.56;94.30;101293.63;5259132;28;20039;-70
2022/05/30 07:25:01;;;;;;;4.00;1.10;;;;;;;14.73;92.92;101291.16;5257453;28;20020;-70
2022/05/30 07:27:32;;;;;;;4.75;1.10;;;;;;;14.58;91.71;101288.19;5258325;28;20033;-70
2022/05/30 07:30:05;;;;;;;3.75;1.52;;;;;;;14.68;100.00;101293.44;5260472;28;20486;-70
2022/05/30 07:32:36;;;;;;;4.03;1.45;;;;;;;14.49;89.19;101294.31;5264846;28;20432;-70
2022/05/30 07:35:07;;;;;;;3.08;1.05;;;;;;;14.34;91.32;101302.66;5260956;28;20079;-70
2022/05/30 07:37:42;;;;;;;4.82;0.82;;;;;;;14.25;93.69;101300.91;5267703;28;20033;-70
2022/05/30 07:40:13;;;;;;;6.40;1.60;;;;;;;14.16;92.36;101299.09;5265255;28;20393;-70
2022/05/30 07:42:45;;;;;;;4.65;0.95;;;;;;;14.05;91.36;101299.25;5265051;28;20040;-70
2022/05/30 07:45:16;;;;;;;4.18;1.00;;;;;;;14.04;92.40;101301.06;5259200;28;20333;-70
2022/05/30 07:47:47;;;;;;;4.43;1.13;;;;;;;14.13;88.78;101296.78;5262142;28;20024;-70
2022/05/30 07:50:19;;;;;;;4.18;1.00;;;;;;;14.22;92.22;101293.28;5247407;28;20024;-71
2022/05/30 07:52:50;;;;;;;4.53;1.20;;;;;;;14.27;93.68;101291.03;5262685;28;20029;-72
2022/05/30 07:55:22;;;;;;;4.07;1.35;;;;;;;14.25;90.71;101287.72;5264426;28;20399;-72
2022/05/30 07:57:56;;;;;;;4.70;1.15;;;;;;;14.74;89.18;101282.31;5264972;28;20041;-71
2022/05/30 08:00:29;;;;;;;5.45;1.17;;;;;;;14.84;82.64;101283.88;5264416;28;20431;-72
2022/05/30 08:03:01;;;;;;;5.28;1.25;;;;;;;15.22;79.86;101289.91;5266936;28;20151;-72
2022/05/30 08:05:33;;;;;;;4.07;1.23;;;;;;;15.35;79.98;101284.28;5266112;28;20103;-72
2022/05/30 08:08:05;;;;;;;5.28;1.15;;;;;;;15.71;79.64;101277.19;5235859;28;20699;-72
2022/05/30 08:10:37;;;;;;;3.97;1.07;;;;;;;15.90;76.45;101280.63;5248121;28;20021;-72
2022/05/30 08:13:08;;;;;;;3.97;1.15;;;;;;;16.02;79.88;101276.75;5228890;28;20056;-72
2022/05/30 08:15:39;;;;;;;3.92;1.40;;;;;;;16.28;76.19;101277.56;5243893;28;20031;-72
2022/05/30 08:18:15;;;;;;;4.88;1.02;;;;;;;16.34;77.07;101292.00;5245363;28;20530;-71
2022/05/30 08:20:46;;;;;;;5.00;1.27;;;;;;;16.30;77.44;101288.00;5245899;28;20369;-71
2022/05/30 08:23:18;;;;;;;5.85;1.40;;;;;;;15.99;71.40;101290.28;5247274;28;20028;-71
2022/05/30 08:25:50;;;;;;;4.88;0.98;;;;;;;15.71;74.92;101294.84;5243285;28;20088;-71
2022/05/30 08:28:22;;;;;;;3.25;1.00;;;;;;;15.55;72.48;101287.59;5244272;28;20032;-71
2022/05/30 08:30:53;;;;;;;3.40;1.02;;;;;;;15.36;73.63;101293.03;5244568;28;20033;-71
2022/05/30 08:33:25;;;;;;;4.60;1.13;;;;;;;15.23;73.00;101294.22;5244229;28;20456;-72
2022/05/30 08:36:05;;;;;;;6.30;1.02;;;;;;;15.21;77.08;101292.72;5242438;28;20033;-71
2022/05/30 08:38:37;;;;;;;5.03;1.20;;;;;;;14.90;74.50;101286.94;5246864;28;20119;-71
2022/05/30 08:44:02;;;;;;;6.60;1.20;;;;;;;15.19;70.69;101299.94;5241173;28;20108;-71
2022/05/30 08:46:39;;;;;;;5.63;1.02;;;;;;;15.29;77.26;101301.53;5242286;28;20041;-72
2022/05/30 08:49:26;;;;;;;4.18;1.25;;;;;;;15.23;74.37;101304.78;5242831;28;20036;-71
2022/05/30 08:52:11;;;;;;;4.15;1.65;;;;;;;15.46;76.69;101301.72;5242277;28;20098;-71
2022/05/30 08:54:54;;;;;;;7.20;1.65;;;;;;;15.58;75.18;101303.13;5239112;28;20480;-72
2022/05/30 08:57:40;;;;;;;5.07;1.20;;;;;;;15.66;72.39;101302.41;5245260;28;20086;-72
2022/05/30 09:00:29;;;;;;;4.70;1.13;;;;;;;16.13;75.75;101297.63;5243571;28;20468;-71
2022/05/30 09:03:10;;;;;;;4.45;1.30;;;;;;;16.33;74.72;101295.63;5247599;28;20025;-69
2022/05/30 09:05:49;;;;;;;2.85;0.90;;;;;;;16.39;68.96;101302.09;5242211;28;20033;-71
2022/05/30 09:08:45;;;;;;;3.58;1.00;;;;;;;16.84;69.68;101301.03;5256008;28;20099;-71
2022/05/30 09:11:35;;;;;;;3.08;1.05;;;;;;;16.99;61.38;101305.53;5267473;28;20044;-70
2022/05/30 09:14:26;;;;;;;5.07;0.80;;;;;;;17.29;62.90;101305.13;5267635;28;20024;-71
2022/05/30 09:17:01;;;;;;;3.03;0.77;;;;;;;17.31;56.67;101301.28;5263532;28;20077;-70
2022/05/30 09:19:32;;;;;;;4.32;1.02;;;;;;;17.58;57.45;101299.34;5263040;28;20020;-70
2022/05/30 09:22:08;;;;;;;4.97;1.10;;;;;;;17.53;57.38;101299.84;5264629;28;20047;-70
2022/05/30 09:25:55;;;;;;;2.88;1.00;;;;;;;17.50;58.92;101294.88;5265995;28;20056;-73
2022/05/30 09:27:34;;;;;;;3.13;0.90;;;;;;;17.33;59.12;101306.44;5260638;28;20129;-70
2022/05/30 09:30:09;;;;;;;2.40;0.70;;;;;;;17.04;54.98;101302.41;5266728;28;20402;-71
2022/05/30 09:32:57;;;;;;;5.85;1.27;;;;;;;16.99;55.18;101304.72;5266563;28;20033;-70
2022/05/30 09:35:32;;;;;;;5.15;1.02;;;;;;;16.77;54.35;101301.66;5265592;28;20081;-70
2022/05/30 09:38:20;;;;;;;4.57;1.65;;;;;;;16.75;57.31;101298.34;5264343;28;20312;-71
2022/05/30 09:40:56;;;;;;;3.95;1.15;;;;;;;16.61;55.63;101301.56;5263713;28;20054;-70
2022/05/30 09:43:41;;;;;;;4.18;1.15;;;;;;;16.75;56.59;101298.34;5262598;28;20039;-70
2022/05/30 09:46:48;;;;;;;3.95;1.30;;;;;;;16.90;60.03;101300.38;5268770;28;20111;-70
2022/05/30 09:49:21;;;;;;;3.20;0.82;;;;;;;16.77;58.79;101298.16;5218376;28;20048;-70
2022/05/30 09:51:55;;;;;;;2.53;1.20;;;;;;;16.67;56.36;101305.41;5266609;28;20032;-70
2022/05/30 09:54:32;;;;;;;5.50;0.80;;;;;;;16.75;54.69;101297.53;5267174;28;20407;-69
2022/05/30 09:57:22;;;;;;;3.28;0.90;;;;;;;16.92;56.56;101303.69;5264900;28;20046;-70
2022/05/30 09:59:57;;;;;;;4.45;1.10;;;;;;;16.57;58.21;101304.69;5261963;28;20753;-70
2022/05/30 10:02:33;;;;;;;3.50;1.02;;;;;;;16.29;53.25;101303.03;5265562;28;20519;-72
2022/05/30 10:05:06;;;;;;;3.83;1.00;;;;;;;16.52;53.28;101303.34;5267053;28;20581;-72
2022/05/30 10:07:50;;;;;;;3.60;1.00;;;;;;;16.57;59.61;101300.22;5264095;28;20127;-70
2022/05/30 10:10:52;;;;;;;3.47;1.17;;;;;;;16.50;55.15;101293.88;5267045;28;20025;-70
2022/05/30 10:13:38;;;;;;;2.30;0.90;;;;;;;16.70;56.24;101305.06;5241935;28;20040;-70
2022/05/30 10:16:14;;;;;;;3.28;1.08;;;;;;;16.75;57.71;101294.88;5266129;28;20403;-70
2022/05/30 10:18:48;;;;;;;6.18;1.40;;;;;;;17.10;55.68;101303.59;5262823;28;20036;-70
2022/05/30 10:28:14;;;;;;;4.32;1.25;;;;;;;17.44;52.88;101293.72;5264327;28;20021;-70
2022/05/30 10:31:12;;;;;;;3.55;1.00;;;;;;;18.35;45.45;101299.81;5261068;28;20029;-69
2022/05/30 10:34:21;;;;;;;3.47;0.90;;;;;;;18.41;45.46;101299.13;5242631;28;20045;-70
2022/05/30 10:37:13;;;;;;;2.72;0.88;;;;;;;18.48;46.20;101295.59;5247989;28;20040;-70
2022/05/30 10:40:12;;;;;;;4.60;1.08;;;;;;;18.83;43.90;101303.34;5257531;28;20080;-71
2022/05/30 10:42:55;;;;;;;3.47;0.90;;;;;;;18.82;41.11;101304.31;5264596;28;20114;-70
2022/05/30 10:45:43;;;;;;;3.03;0.68;;;;;;;18.74;40.47;101302.53;5260531;28;20139;-70
2022/05/30 10:48:34;;;;;;;3.13;0.95;;;;;;;19.10;39.19;101302.03;5258564;28;20025;-71
2022/05/30 10:51:13;;;;;;;3.22;1.00;;;;;;;19.20;39.46;101307.94;5267690;28;20029;-70
2022/05/30 10:53:54;;;;;;;2.42;0.88;;;;;;;19.37;37.94;101312.16;5261811;28;20032;-70
2022/05/30 10:56:29;;;;;;;3.63;1.15;;;;;;;18.89;36.74;101315.91;5259316;28;20075;-70
2022/05/30 10:59:26;;;;;;;2.75;0.88;;;;;;;18.99;39.95;101311.22;5263847;28;20033;-70
2022/05/30 11:02:10;;;;;;;3.50;1.08;;;;;;;18.70;40.09;101310.00;5261752;28;20033;-70
2022/05/30 11:04:47;;;;;;;3.15;1.00;;;;;;;18.46;38.32;101308.22;5262914;28;20410;-71
2022/05/30 11:07:46;;;;;;;3.20;1.10;;;;;;;18.54;40.07;101314.50;5258960;28;20052;-70
2022/05/30 11:10:27;;;;;;;3.75;1.23;;;;;;;17.90;43.81;101315.28;5250746;28;20490;-70
2022/05/30 11:13:34;;;;;;;4.57;1.30;;;;;;;17.82;44.76;101314.47;5258870;28;20091;-70
2022/05/30 11:16:13;;;;;;;5.18;1.58;;;;;;;17.50;46.30;101311.63;5253049;28;20379;-70
2022/05/30 11:19:13;;;;;;;3.90;1.00;;;;;;;17.35;47.29;101320.34;5254733;28;20033;-70
2022/05/30 11:21:55;;;;;;;3.92;1.52;;;;;;;17.41;48.45;101309.09;5256772;28;21124;-70
2022/05/30 11:24:27;;;;;;;5.40;1.30;;;;;;;17.23;47.93;101310.06;5255471;28;20541;-70
2022/05/30 11:27:05;;;;;;;6.33;1.60;;;;;;;17.24;47.22;101316.22;5244136;28;20142;-70
2022/05/30 11:30:02;;;;;;;3.95;1.50;;;;;;;17.24;46.21;101314.38;5235638;28;20033;-70
2022/05/30 11:33:04;;;;;;;4.57;1.70;;;;;;;17.23;48.68;101317.16;5235423;28;20040;-70
2022/05/30 11:35:35;;;;;;;6.57;1.85;;;;;;;17.04;45.51;101318.28;5242790;28;20029;-70
2022/05/30 11:38:13;;;;;;;4.87;1.50;;;;;;;17.24;47.64;101318.84;5258209;28;20025;-70
2022/05/30 11:41:05;;;;;;;5.05;1.30;;;;;;;17.30;47.56;101314.72;5258538;28;20044;-70
2022/05/30 11:43:49;;;;;;;4.28;1.30;;;;;;;17.26;48.21;101315.03;5260096;28;20389;-69
2022/05/30 11:46:32;;;;;;;4.93;1.50;;;;;;;17.29;46.15;101313.88;5264641;28;20442;-70
2022/05/30 11:49:42;;;;;;;5.30;1.40;;;;;;;17.49;46.64;101312.59;5260181;28;20467;-69
2022/05/30 11:52:23;;;;;;;3.22;1.42;;;;;;;17.43;45.90;101310.59;5263358;28;20028;-70
2022/05/30 11:55:24;;;;;;;6.22;1.20;;;;;;;17.79;46.20;101318.28;5262977;28;20062;-70
2022/05/30 11:58:04;;;;;;;5.75;1.50;;;;;;;17.73;45.56;101303.84;5259498;28;20044;-70
2022/05/30 12:00:41;;;;;;;3.53;1.20;;;;;;;17.90;43.22;101314.47;5258227;28;20025;-70
2022/05/30 12:03:44;;;;;;;4.18;1.33;;;;;;;18.04;44.33;101311.16;5262318;28;20031;-70
2022/05/30 12:06:40;;;;;;;5.82;1.40;;;;;;;18.26;42.72;101316.72;5261357;28;20072;-70
2022/05/30 12:09:34;;;;;;;3.30;1.20;;;;;;;18.29;42.66;101316.41;5249976;28;20049;-70
2022/05/30 12:12:35;;;;;;;6.30;1.60;;;;;;;18.73;45.14;101316.78;5252766;28;20037;-70
2022/05/30 12:15:39;;;;;;;5.43;1.70;;;;;;;19.19;41.54;101311.59;5250656;28;20029;-70
2022/05/30 12:24:37;;;;;;;3.30;1.10;;;;;;;19.28;38.66;101305.25;5254418;28;20519;-70
2022/05/30 12:27:11;;;;;;;3.30;1.33;;;;;;;19.30;38.15;101308.53;5247965;28;20021;-70
2022/05/30 12:29:43;;;;;;;5.18;1.48;;;;;;;19.07;39.85;101305.84;5254310;28;20036;-70